createdAt,value
2019-01-22T00:00:27.367Z,-6.01
2019-01-22T00:01:27.948Z,-6.10
2019-01-22T00:02:28.540Z,-6.06
2019-01-22T00:03:29.127Z,-6.10
2019-01-22T00:04:29.720Z,-6.01
2019-01-22T00:05:30.307Z,-6.04
2019-01-22T00:06:30.897Z,-6.02
2019-01-22T00:07:31.488Z,-6.07
2019-01-22T00:08:32.071Z,-6.07
2019-01-22T00:09:32.660Z,-6.16
2019-01-22T00:10:33.247Z,-6.07
2019-01-22T00:11:33.834Z,-6.14
2019-01-22T00:12:34.416Z,-6.10
2019-01-22T00:13:35.007Z,-6.12
2019-01-22T00:14:35.589Z,-6.12
2019-01-22T00:15:36.179Z,-6.14
2019-01-22T00:16:36.767Z,-6.06
2019-01-22T00:17:37.363Z,-6.24
2019-01-22T00:18:37.954Z,-6.22
2019-01-22T00:19:38.730Z,-6.22
2019-01-22T00:20:39.322Z,-6.22
2019-01-22T00:21:39.909Z,-6.28
2019-01-22T00:22:40.505Z,-6.20
2019-01-22T00:23:41.083Z,-6.28
2019-01-22T00:24:41.671Z,-6.27
2019-01-22T00:25:42.260Z,-6.22
2019-01-22T00:26:42.851Z,-6.20
2019-01-22T00:27:43.430Z,-6.20
2019-01-22T00:28:44.016Z,-6.28
2019-01-22T00:29:44.629Z,-6.28
2019-01-22T00:30:45.208Z,-6.20
2019-01-22T00:31:45.808Z,-6.25
2019-01-22T00:32:46.382Z,-6.27
2019-01-22T00:33:46.979Z,-6.28
2019-01-22T00:34:47.564Z,-6.27
2019-01-22T00:35:48.150Z,-6.24
2019-01-22T00:36:48.735Z,-6.24
2019-01-22T00:37:49.583Z,-6.27
2019-01-22T00:38:50.209Z,-6.31
2019-01-22T00:39:50.781Z,-6.31
2019-01-22T00:40:51.359Z,-6.31
2019-01-22T00:41:51.948Z,-6.30
2019-01-22T00:42:52.532Z,-6.30
2019-01-22T00:43:53.121Z,-6.22
2019-01-22T00:44:53.711Z,-6.31
2019-01-22T00:45:54.297Z,-6.28
2019-01-22T00:46:55.169Z,-6.27
2019-01-22T00:47:55.833Z,-6.28
2019-01-22T00:48:56.416Z,-6.34
2019-01-22T00:49:57.002Z,-6.31
2019-01-22T00:50:57.593Z,-6.37
2019-01-22T00:51:58.180Z,-6.34
2019-01-22T00:52:58.763Z,-6.40
2019-01-22T00:53:59.356Z,-6.38
2019-01-22T00:54:59.949Z,-6.38
2019-01-22T00:56:00.531Z,-6.37
2019-01-22T00:57:01.118Z,-6.34
2019-01-22T00:58:01.708Z,-6.40
2019-01-22T00:59:02.303Z,-6.37
2019-01-22T01:00:02.891Z,-6.34
2019-01-22T01:01:03.498Z,-6.46
2019-01-22T01:02:04.095Z,-6.45
2019-01-22T01:03:04.694Z,-6.38
2019-01-22T01:04:05.289Z,-6.43
2019-01-22T01:05:05.886Z,-6.34
2019-01-22T01:06:06.480Z,-6.25
2019-01-22T01:07:07.079Z,-6.31
2019-01-22T01:08:07.671Z,-6.22
2019-01-22T01:09:08.266Z,-6.22
2019-01-22T01:10:08.864Z,-6.30
2019-01-22T01:11:09.466Z,-6.30
2019-01-22T01:12:10.079Z,-6.28
2019-01-22T01:13:10.877Z,-6.33
2019-01-22T01:14:11.473Z,-6.35
2019-01-22T01:15:12.071Z,-6.37
2019-01-22T01:16:12.669Z,-6.38
2019-01-22T01:17:13.266Z,-6.43
2019-01-22T01:18:13.885Z,-6.34
2019-01-22T01:19:14.481Z,-6.35
2019-01-22T01:20:15.076Z,-6.34
2019-01-22T01:21:15.674Z,-6.35
2019-01-22T01:22:17.696Z,-6.33
2019-01-22T01:23:18.040Z,-6.35
2019-01-22T01:24:18.636Z,-6.33
2019-01-22T01:25:19.232Z,-6.30
2019-01-22T01:26:19.810Z,-6.25
2019-01-22T01:27:20.402Z,-6.31
2019-01-22T01:28:20.989Z,-6.25
2019-01-22T01:29:21.572Z,-6.33
2019-01-22T01:30:22.160Z,-6.33
2019-01-22T01:31:22.743Z,-6.30
2019-01-22T01:32:23.333Z,-6.25
2019-01-22T01:33:23.923Z,-6.30
2019-01-22T01:34:24.503Z,-6.25
2019-01-22T01:35:25.093Z,-6.20
2019-01-22T01:36:25.685Z,-6.28
2019-01-22T01:37:26.263Z,-6.22
2019-01-22T01:38:26.855Z,-6.24
2019-01-22T01:39:27.441Z,-6.30
2019-01-22T01:40:28.020Z,-6.28
2019-01-22T01:41:28.623Z,-6.27
2019-01-22T01:42:29.195Z,-6.22
2019-01-22T01:43:29.775Z,-6.25
2019-01-22T01:44:30.365Z,-6.35
2019-01-22T01:45:30.948Z,-6.33
2019-01-22T01:46:31.543Z,-6.40
2019-01-22T01:47:32.128Z,-6.40
2019-01-22T01:48:32.714Z,-6.40
2019-01-22T01:49:33.301Z,-6.42
2019-01-22T01:50:33.888Z,-6.48
2019-01-22T01:51:34.480Z,-6.46
2019-01-22T01:52:35.068Z,-6.51
2019-01-22T01:53:35.656Z,-6.52
2019-01-22T01:54:36.244Z,-6.55
2019-01-22T01:55:36.840Z,-6.55
2019-01-22T01:56:37.429Z,-6.56
2019-01-22T01:57:38.008Z,-6.60
2019-01-22T01:58:38.599Z,-6.64
2019-01-22T01:59:39.186Z,-6.56
2019-01-22T02:00:39.767Z,-6.52
2019-01-22T02:01:40.347Z,-6.60
2019-01-22T02:02:40.942Z,-6.56
2019-01-22T02:03:41.534Z,-6.53
2019-01-22T02:04:42.118Z,-6.49
2019-01-22T02:05:42.710Z,-6.49
2019-01-22T02:06:43.317Z,-6.49
2019-01-22T02:07:43.924Z,-6.40
2019-01-22T02:08:44.473Z,-6.40
2019-01-22T02:09:45.061Z,-6.45
2019-01-22T02:10:45.643Z,-6.40
2019-01-22T02:11:46.232Z,-6.35
2019-01-22T02:12:46.824Z,-6.25
2019-01-22T02:13:47.410Z,-6.25
2019-01-22T02:14:47.991Z,-6.30
2019-01-22T02:15:48.586Z,-6.17
2019-01-22T02:16:49.174Z,-6.09
2019-01-22T02:17:49.761Z,-6.14
2019-01-22T02:18:50.343Z,-6.09
2019-01-22T02:19:50.935Z,-6.04
2019-01-22T02:20:51.523Z,-6.07
2019-01-22T02:21:52.101Z,-5.81
2019-01-22T02:22:52.691Z,-5.81
2019-01-22T02:23:53.336Z,-5.84
2019-01-22T02:24:53.924Z,-5.92
2019-01-22T02:25:54.511Z,-5.95
2019-01-22T02:26:55.103Z,-5.77
2019-01-22T02:27:55.693Z,-5.81
2019-01-22T02:28:56.274Z,-5.89
2019-01-22T02:29:56.865Z,-5.95
2019-01-22T02:30:57.455Z,-5.83
2019-01-22T02:31:58.052Z,-5.83
2019-01-22T02:32:58.642Z,-5.86
2019-01-22T02:33:59.238Z,-5.96
2019-01-22T02:34:59.823Z,-5.84
2019-01-22T02:36:00.428Z,-5.88
2019-01-22T02:37:01.000Z,-5.77
2019-01-22T02:38:01.591Z,-6.01
2019-01-22T02:39:02.174Z,-5.88
2019-01-22T02:40:02.765Z,-5.86
2019-01-22T02:41:03.355Z,-5.89
2019-01-22T02:42:03.943Z,-5.89
2019-01-22T02:43:04.534Z,-5.78
2019-01-22T02:44:05.113Z,-5.75
2019-01-22T02:45:05.718Z,-5.77
2019-01-22T02:46:06.294Z,-5.81
2019-01-22T02:47:06.883Z,-5.81
2019-01-22T02:48:07.471Z,-5.81
2019-01-22T02:49:08.054Z,-5.89
2019-01-22T02:50:08.641Z,-5.81
2019-01-22T02:51:09.229Z,-5.91
2019-01-22T02:52:09.806Z,-5.75
2019-01-22T02:53:10.386Z,-5.83
2019-01-22T02:54:10.981Z,-5.74
2019-01-22T02:55:11.568Z,-5.89
2019-01-22T02:56:12.159Z,-5.83
2019-01-22T02:57:12.746Z,-5.99
2019-01-22T02:58:13.334Z,-5.92
2019-01-22T02:59:13.918Z,-5.92
2019-01-22T03:00:14.501Z,-5.92
2019-01-22T03:01:15.081Z,-5.98
2019-01-22T03:02:15.677Z,-5.92
2019-01-22T03:04:31.735Z,-5.81
2019-01-22T03:05:32.326Z,-5.81
2019-01-22T03:06:32.909Z,-5.88
2019-01-22T03:07:33.499Z,-5.83
2019-01-22T03:08:34.081Z,-5.99
2019-01-22T03:09:34.695Z,-5.77
2019-01-22T03:10:35.254Z,-5.94
2019-01-22T03:11:36.029Z,-5.95
2019-01-22T03:12:36.610Z,-5.95
2019-01-22T03:13:37.201Z,-5.92
2019-01-22T03:14:37.790Z,-5.86
2019-01-22T03:15:38.379Z,-5.98
2019-01-22T03:16:38.965Z,-5.96
2019-01-22T03:17:39.553Z,-5.96
2019-01-22T03:18:40.134Z,-6.04
2019-01-22T03:19:40.724Z,-6.06
2019-01-22T03:20:41.314Z,-6.01
2019-01-22T03:21:41.901Z,-6.04
2019-01-22T03:22:42.484Z,-6.04
2019-01-22T03:23:46.511Z,-6.14
2019-01-22T03:24:43.648Z,-6.22
2019-01-22T03:25:44.237Z,-6.24
2019-01-22T03:26:44.827Z,-6.28
2019-01-22T03:27:45.410Z,-6.31
2019-01-22T03:28:45.999Z,-6.27
2019-01-22T03:29:46.582Z,-6.42
2019-01-22T03:30:47.175Z,-6.40
2019-01-22T03:31:47.756Z,-6.43
2019-01-22T03:32:48.351Z,-6.42
2019-01-22T03:33:48.936Z,-6.48
2019-01-22T03:34:49.517Z,-6.52
2019-01-22T03:35:50.115Z,-6.52
2019-01-22T03:36:50.697Z,-6.60
2019-01-22T03:37:51.290Z,-6.56
2019-01-22T03:38:51.871Z,-6.68
2019-01-22T03:39:52.459Z,-6.75
2019-01-22T03:40:53.045Z,-6.71
2019-01-22T03:41:53.632Z,-6.75
2019-01-22T03:42:54.224Z,-6.78
2019-01-22T03:43:54.810Z,-6.89
2019-01-22T03:44:55.400Z,-6.85
2019-01-22T03:45:55.990Z,-6.88
2019-01-22T03:46:56.580Z,-7.00
2019-01-22T03:47:57.167Z,-7.02
2019-01-22T03:48:57.757Z,-6.96
2019-01-22T03:49:58.342Z,-7.00
2019-01-22T03:50:58.932Z,-6.93
2019-01-22T03:51:59.519Z,-6.95
2019-01-22T03:53:00.111Z,-7.07
2019-01-22T03:54:00.697Z,-7.04
2019-01-22T03:55:01.283Z,-7.00
2019-01-22T03:56:01.866Z,-6.96
2019-01-22T03:57:02.449Z,-7.09
2019-01-22T03:58:03.032Z,-7.10
2019-01-22T03:59:03.619Z,-7.16
2019-01-22T04:00:04.200Z,-7.14
2019-01-22T04:01:04.791Z,-7.07
2019-01-22T04:02:05.379Z,-7.07
2019-01-22T04:03:05.970Z,-6.95
2019-01-22T04:04:06.563Z,-7.04
2019-01-22T04:05:07.148Z,-7.10
2019-01-22T04:06:07.733Z,-7.03
2019-01-22T04:07:08.318Z,-7.00
2019-01-22T04:08:08.906Z,-7.04
2019-01-22T04:09:09.499Z,-7.03
2019-01-22T04:10:10.084Z,-7.00
2019-01-22T04:11:10.666Z,-7.06
2019-01-22T04:12:11.260Z,-6.98
2019-01-22T04:13:11.847Z,-7.02
2019-01-22T04:14:12.433Z,-7.00
2019-01-22T04:15:13.026Z,-6.95
2019-01-22T04:16:13.612Z,-6.93
2019-01-22T04:17:14.204Z,-6.96
2019-01-22T04:18:14.793Z,-7.02
2019-01-22T04:19:15.386Z,-7.03
2019-01-22T04:20:15.971Z,-6.93
2019-01-22T04:21:16.564Z,-6.91
2019-01-22T04:22:17.146Z,-6.91
2019-01-22T04:23:17.731Z,-6.89
2019-01-22T04:24:18.327Z,-6.93
2019-01-22T04:25:18.909Z,-6.95
2019-01-22T04:26:19.501Z,-6.91
2019-01-22T04:27:20.080Z,-6.89
2019-01-22T04:28:20.669Z,-6.86
2019-01-22T04:29:21.250Z,-6.86
2019-01-22T04:30:21.840Z,-6.89
2019-01-22T04:31:22.421Z,-6.96
2019-01-22T04:32:23.000Z,-6.83
2019-01-22T04:33:23.592Z,-6.86
2019-01-22T04:34:24.185Z,-6.85
2019-01-22T04:35:24.776Z,-6.82
2019-01-22T04:36:25.364Z,-6.71
2019-01-22T04:37:25.963Z,-6.65
2019-01-22T04:38:26.549Z,-6.71
2019-01-22T04:39:27.135Z,-6.77
2019-01-22T04:40:27.722Z,-6.71
2019-01-22T04:41:28.317Z,-6.78
2019-01-22T04:42:28.898Z,-6.77
2019-01-22T04:43:29.487Z,-6.73
2019-01-22T04:44:30.074Z,-6.78
2019-01-22T04:45:30.661Z,-6.70
2019-01-22T04:46:31.250Z,-6.63
2019-01-22T04:47:31.832Z,-6.68
2019-01-22T04:48:32.425Z,-6.59
2019-01-22T04:49:33.013Z,-6.55
2019-01-22T04:50:33.605Z,-6.60
2019-01-22T04:51:34.192Z,-6.55
2019-01-22T04:52:34.779Z,-6.63
2019-01-22T04:53:35.357Z,-6.60
2019-01-22T04:54:35.937Z,-6.53
2019-01-22T04:55:36.517Z,-6.51
2019-01-22T04:56:37.098Z,-6.48
2019-01-22T04:57:37.685Z,-6.46
2019-01-22T04:58:38.270Z,-6.46
2019-01-22T04:59:38.851Z,-6.45
2019-01-22T05:00:39.442Z,-6.38
2019-01-22T05:01:40.032Z,-6.24
2019-01-22T05:02:40.614Z,-6.27
2019-01-22T05:03:41.204Z,-6.25
2019-01-22T05:04:41.791Z,-6.25
2019-01-22T05:05:42.373Z,-6.09
2019-01-22T05:06:42.967Z,-6.07
2019-01-22T05:07:43.556Z,-6.16
2019-01-22T05:08:44.147Z,-6.09
2019-01-22T05:09:44.732Z,-6.14
2019-01-22T05:10:45.320Z,-6.09
2019-01-22T05:11:45.906Z,-6.09
2019-01-22T05:12:46.495Z,-6.04
2019-01-22T05:13:47.085Z,-6.09
2019-01-22T05:14:47.676Z,-5.98
2019-01-22T05:15:48.256Z,-5.98
2019-01-22T05:16:48.846Z,-5.92
2019-01-22T05:17:49.434Z,-5.91
2019-01-22T05:18:50.067Z,-5.89
2019-01-22T05:19:50.608Z,-5.71
2019-01-22T05:20:51.199Z,-5.71
2019-01-22T05:21:51.998Z,-5.62
2019-01-22T05:22:52.589Z,-5.57
2019-01-22T05:23:53.177Z,-5.65
2019-01-22T05:24:53.767Z,-5.65
2019-01-22T05:25:54.358Z,-5.50
2019-01-22T05:26:54.949Z,-5.49
2019-01-22T05:27:55.538Z,-5.46
2019-01-22T05:28:56.126Z,-5.50
2019-01-22T05:29:56.710Z,-5.46
2019-01-22T05:30:57.296Z,-5.46
2019-01-22T05:31:57.897Z,-5.46
2019-01-22T05:32:58.475Z,-5.46
2019-01-22T05:33:59.065Z,-5.55
2019-01-22T05:34:59.660Z,-5.45
2019-01-22T05:36:00.244Z,-5.46
2019-01-22T05:37:00.833Z,-5.44
2019-01-22T05:38:01.416Z,-5.35
2019-01-22T05:39:02.008Z,-5.35
2019-01-22T05:40:02.599Z,-5.35
2019-01-22T05:41:03.191Z,-5.24
2019-01-22T05:42:03.775Z,-5.32
2019-01-22T05:43:04.368Z,-5.23
2019-01-22T05:44:04.955Z,-5.31
2019-01-22T05:45:05.549Z,-5.31
2019-01-22T05:46:06.135Z,-5.24
2019-01-22T05:47:06.718Z,-5.27
2019-01-22T05:48:13.279Z,-5.41
2019-01-22T05:49:07.906Z,-5.34
2019-01-22T05:50:08.469Z,-5.39
2019-01-22T05:51:09.062Z,-5.36
2019-01-22T05:52:09.653Z,-5.49
2019-01-22T05:53:10.243Z,-5.41
2019-01-22T05:54:10.833Z,-5.35
2019-01-22T05:55:11.422Z,-5.45
2019-01-22T05:56:12.012Z,-5.46
2019-01-22T05:57:12.597Z,-5.46
2019-01-22T05:58:13.189Z,-5.50
2019-01-22T05:59:13.777Z,-5.52
2019-01-22T06:00:14.391Z,-5.50
2019-01-22T06:01:14.961Z,-5.56
2019-01-22T06:02:15.547Z,-5.60
2019-01-22T06:03:16.129Z,-5.59
2019-01-22T06:04:16.709Z,-5.63
2019-01-22T06:05:17.300Z,-5.53
2019-01-22T06:06:17.887Z,-5.60
2019-01-22T06:07:18.473Z,-5.50
2019-01-22T06:08:19.058Z,-5.36
2019-01-22T06:09:19.714Z,-5.38
2019-01-22T06:10:20.299Z,-5.49
2019-01-22T06:11:20.905Z,-5.63
2019-01-22T06:12:21.487Z,-5.62
2019-01-22T06:13:22.076Z,-5.62
2019-01-22T06:14:22.665Z,-5.70
2019-01-22T06:15:23.245Z,-5.65
2019-01-22T06:16:23.840Z,-5.63
2019-01-22T06:17:24.432Z,-5.62
2019-01-22T06:18:25.022Z,-5.67
2019-01-22T06:19:25.618Z,-5.62
2019-01-22T06:20:26.205Z,-5.71
2019-01-22T06:21:26.801Z,-5.77
2019-01-22T06:22:27.386Z,-5.83
2019-01-22T06:23:27.978Z,-5.84
2019-01-22T06:24:33.087Z,-5.83
2019-01-22T06:25:29.211Z,-5.83
2019-01-22T06:26:29.811Z,-5.80
2019-01-22T06:27:30.394Z,-5.77
2019-01-22T06:28:30.974Z,-5.80
2019-01-22T06:29:31.559Z,-5.86
2019-01-22T06:30:32.152Z,-5.80
2019-01-22T06:31:32.786Z,-5.78
2019-01-22T06:32:33.402Z,-5.75
2019-01-22T06:33:33.985Z,-5.81
2019-01-22T06:34:34.548Z,-5.77
2019-01-22T06:35:35.143Z,-5.78
2019-01-22T06:36:35.729Z,-5.65
2019-01-22T06:37:36.317Z,-5.67
2019-01-22T06:38:36.905Z,-5.73
2019-01-22T06:39:37.504Z,-5.70
2019-01-22T06:40:38.092Z,-5.77
2019-01-22T06:41:38.674Z,-5.71
2019-01-22T06:42:39.264Z,-5.68
2019-01-22T06:43:39.850Z,-5.65
2019-01-22T06:44:40.432Z,-5.62
2019-01-22T06:45:41.019Z,-5.60
2019-01-22T06:46:41.609Z,-5.63
2019-01-22T06:47:42.191Z,-5.65
2019-01-22T06:48:42.781Z,-5.63
2019-01-22T06:49:43.370Z,-5.73
2019-01-22T06:50:43.953Z,-5.70
2019-01-22T06:51:44.543Z,-5.68
2019-01-22T06:52:45.139Z,-5.77
2019-01-22T06:53:45.765Z,-5.73
2019-01-22T06:54:46.316Z,-5.77
2019-01-22T06:55:46.905Z,-5.80
2019-01-22T06:56:47.489Z,-5.88
2019-01-22T06:57:48.081Z,-5.83
2019-01-22T06:58:48.674Z,-5.91
2019-01-22T06:59:49.263Z,-5.94
2019-01-22T07:00:49.857Z,-5.96
2019-01-22T07:01:50.435Z,-5.95
2019-01-22T07:02:51.031Z,-5.94
2019-01-22T07:03:51.613Z,-5.94
2019-01-22T07:04:52.208Z,-5.94
2019-01-22T07:05:52.796Z,-5.92
2019-01-22T07:06:53.387Z,-5.83
2019-01-22T07:07:53.966Z,-5.84
2019-01-22T07:08:54.556Z,-5.86
2019-01-22T07:09:55.147Z,-5.88
2019-01-22T07:10:55.738Z,-5.80
2019-01-22T07:11:56.329Z,-5.84
2019-01-22T07:12:56.918Z,-5.81
2019-01-22T07:13:57.508Z,-5.83
2019-01-22T07:14:58.100Z,-5.83
2019-01-22T07:15:58.694Z,-5.88
2019-01-22T07:16:59.286Z,-5.77
2019-01-22T07:17:59.995Z,-5.77
2019-01-22T07:19:00.581Z,-5.81
2019-01-22T07:20:01.164Z,-5.77
2019-01-22T07:21:01.782Z,-5.88
2019-01-22T07:22:02.341Z,-5.78
2019-01-22T07:23:02.920Z,-5.83
2019-01-22T07:24:03.515Z,-5.84
2019-01-22T07:25:04.818Z,-5.92
2019-01-22T07:26:04.685Z,-5.84
2019-01-22T07:27:05.281Z,-5.91
2019-01-22T07:28:05.868Z,-5.88
2019-01-22T07:29:06.459Z,-5.91
2019-01-22T07:30:07.050Z,-5.81
2019-01-22T07:31:07.633Z,-5.80
2019-01-22T07:32:08.224Z,-5.81
2019-01-22T07:33:08.815Z,-5.89
2019-01-22T07:34:09.397Z,-5.80
2019-01-22T07:35:10.017Z,-5.86
2019-01-22T07:36:10.588Z,-5.88
2019-01-22T07:37:11.320Z,-5.77
2019-01-22T07:38:11.913Z,-5.74
2019-01-22T07:39:12.523Z,-5.71
2019-01-22T07:40:13.101Z,-5.57
2019-01-22T07:41:13.694Z,-5.67
2019-01-22T07:42:14.277Z,-5.59
2019-01-22T07:43:14.872Z,-5.67
2019-01-22T07:44:15.463Z,-5.60
2019-01-22T07:45:16.051Z,-5.53
2019-01-22T07:46:16.641Z,-5.50
2019-01-22T07:47:17.237Z,-5.28
2019-01-22T07:48:17.823Z,-5.31
2019-01-22T07:49:18.419Z,-5.28
2019-01-22T07:50:19.026Z,-5.31
2019-01-22T07:51:19.606Z,-5.21
2019-01-22T07:52:20.199Z,-5.20
2019-01-22T07:53:20.792Z,-5.12
2019-01-22T07:54:21.384Z,-5.08
2019-01-22T07:55:22.227Z,-4.95
2019-01-22T07:56:22.813Z,-5.04
2019-01-22T07:57:23.408Z,-4.86
2019-01-22T07:58:24.007Z,-4.76
2019-01-22T07:59:24.598Z,-4.73
2019-01-22T08:00:25.182Z,-4.70
2019-01-22T08:01:25.779Z,-4.70
2019-01-22T08:02:26.372Z,-4.52
2019-01-22T08:03:26.967Z,-4.52
2019-01-22T08:04:27.560Z,-4.48
2019-01-22T08:05:28.156Z,-4.29
2019-01-22T08:06:28.742Z,-4.12
2019-01-22T08:07:29.345Z,-3.91
2019-01-22T08:08:29.939Z,-3.65
2019-01-22T08:09:30.537Z,-3.41
2019-01-22T08:10:31.385Z,-3.15
2019-01-22T08:11:31.979Z,-2.90
2019-01-22T08:12:32.577Z,-2.83
2019-01-22T08:13:33.181Z,-2.76
2019-01-22T08:14:33.769Z,-2.79
2019-01-22T08:15:34.431Z,-2.77
2019-01-22T08:16:35.028Z,-2.73
2019-01-22T08:17:35.622Z,-2.76
2019-01-22T08:18:36.213Z,-2.75
2019-01-22T08:19:36.815Z,-2.73
2019-01-22T08:20:37.399Z,-2.73
2019-01-22T08:21:37.993Z,-2.66
2019-01-22T08:22:38.585Z,-2.69
2019-01-22T08:23:39.180Z,-2.61
2019-01-22T08:24:39.776Z,-2.70
2019-01-22T08:25:40.373Z,-2.61
2019-01-22T08:26:40.962Z,-2.57
2019-01-22T08:27:41.560Z,-2.59
2019-01-22T08:28:42.156Z,-2.61
2019-01-22T08:29:42.747Z,-2.64
2019-01-22T08:30:43.342Z,-2.70
2019-01-22T08:31:43.939Z,-2.73
2019-01-22T08:32:44.534Z,-2.70
2019-01-22T08:33:45.125Z,-2.67
2019-01-22T08:34:45.713Z,-2.70
2019-01-22T08:35:46.314Z,-2.70
2019-01-22T08:36:46.914Z,-2.62
2019-01-22T08:37:47.508Z,-2.70
2019-01-22T08:38:48.103Z,-2.62
2019-01-22T08:39:48.703Z,-2.55
2019-01-22T08:40:49.293Z,-2.41
2019-01-22T08:41:49.895Z,-2.29
2019-01-22T08:42:50.491Z,-2.25
2019-01-22T08:43:51.087Z,-2.21
2019-01-22T08:44:51.687Z,-2.34
2019-01-22T08:45:52.288Z,-2.36
2019-01-22T08:46:52.891Z,-2.30
2019-01-22T08:47:53.492Z,-2.28
2019-01-22T08:48:54.084Z,-2.25
2019-01-22T08:49:54.679Z,-2.28
2019-01-22T08:50:55.275Z,-2.22
2019-01-22T08:51:55.882Z,-2.19
2019-01-22T08:52:56.465Z,-2.19
2019-01-22T08:53:57.061Z,-2.21
2019-01-22T08:54:57.662Z,-2.21
2019-01-22T08:55:58.254Z,-2.19
2019-01-22T08:56:58.849Z,-2.22
2019-01-22T08:57:59.435Z,-2.15
2019-01-22T08:59:00.099Z,-2.19
2019-01-22T09:00:00.700Z,-2.14
2019-01-22T09:01:01.297Z,-2.03
2019-01-22T09:02:01.887Z,-2.04
2019-01-22T09:03:02.482Z,-1.96
2019-01-22T09:04:03.075Z,-1.96
2019-01-22T09:05:03.673Z,-1.96
2019-01-22T09:06:04.270Z,-1.86
2019-01-22T09:07:04.854Z,-1.83
2019-01-22T09:08:09.743Z,-1.76
2019-01-22T09:09:06.041Z,-1.67
2019-01-22T09:10:06.632Z,-1.52
2019-01-22T09:11:07.223Z,-1.43
2019-01-22T09:12:07.821Z,-1.44
2019-01-22T09:13:08.408Z,-1.32
2019-01-22T09:14:09.008Z,-1.26
2019-01-22T09:15:09.596Z,-1.42
2019-01-22T09:16:10.198Z,-1.37
2019-01-22T09:17:10.851Z,-1.28
2019-01-22T09:18:11.446Z,-1.34
2019-01-22T09:19:12.050Z,-1.18
2019-01-22T09:20:12.633Z,-1.10
2019-01-22T09:21:13.235Z,-0.98
2019-01-22T09:22:13.834Z,-1.08
2019-01-22T09:23:14.433Z,-1.06
2019-01-22T09:24:15.030Z,-0.97
2019-01-22T09:25:15.632Z,-0.97
2019-01-22T09:26:16.223Z,-0.98
2019-01-22T09:27:16.820Z,-0.86
2019-01-22T09:28:17.423Z,-0.79
2019-01-22T09:29:18.021Z,-0.84
2019-01-22T09:30:18.689Z,-0.68
2019-01-22T09:31:19.269Z,-0.76
2019-01-22T09:32:19.867Z,-0.76
2019-01-22T09:33:20.461Z,-0.64
2019-01-22T09:34:21.061Z,-0.70
2019-01-22T09:35:21.661Z,-0.70
2019-01-22T09:36:22.246Z,-0.63
2019-01-22T09:37:22.836Z,-0.63
2019-01-22T09:38:23.440Z,-0.68
2019-01-22T09:39:24.038Z,-0.61
2019-01-22T09:40:24.655Z,-0.60
2019-01-22T09:41:25.227Z,-0.48
2019-01-22T09:42:25.830Z,-0.28
2019-01-22T09:43:26.430Z,-0.10
2019-01-22T09:44:27.023Z,-0.03
2019-01-22T09:45:27.623Z,0.14
2019-01-22T09:46:28.217Z,0.15
2019-01-22T09:47:28.811Z,0.19
2019-01-22T09:48:29.411Z,0.19
2019-01-22T09:49:30.009Z,0.29
2019-01-22T09:50:30.608Z,0.30
2019-01-22T09:51:31.234Z,0.45
2019-01-22T09:52:31.869Z,0.72
2019-01-22T09:53:32.438Z,0.69
2019-01-22T09:54:33.035Z,0.84
2019-01-22T09:55:33.640Z,0.82
2019-01-22T09:56:34.229Z,0.95
2019-01-22T09:57:34.831Z,0.93
2019-01-22T09:58:35.432Z,0.87
2019-01-22T09:59:36.024Z,0.91
2019-01-22T10:00:36.633Z,0.88
2019-01-22T10:01:37.218Z,0.77
2019-01-22T10:02:37.826Z,0.59
2019-01-22T10:03:38.413Z,0.60
2019-01-22T10:04:39.016Z,0.38
2019-01-22T10:05:39.615Z,0.32
2019-01-22T10:06:40.214Z,0.26
2019-01-22T10:07:40.818Z,0.29
2019-01-22T10:08:41.418Z,0.29
2019-01-22T10:09:42.013Z,0.26
2019-01-22T10:10:42.601Z,0.25
2019-01-22T10:11:43.200Z,0.22
2019-01-22T10:12:43.801Z,0.23
2019-01-22T10:13:48.334Z,0.26
2019-01-22T10:14:45.001Z,0.25
2019-01-22T10:15:45.599Z,0.27
2019-01-22T10:16:46.193Z,0.45
2019-01-22T10:17:46.819Z,0.59
2019-01-22T10:18:47.396Z,0.67
2019-01-22T10:19:47.991Z,1.00
2019-01-22T10:20:48.589Z,0.96
2019-01-22T10:21:49.186Z,1.20
2019-01-22T10:22:49.775Z,1.28
2019-01-22T10:23:50.376Z,1.56
2019-01-22T10:24:50.977Z,1.53
2019-01-22T10:25:51.576Z,1.62
2019-01-22T10:26:52.177Z,1.82
2019-01-22T10:27:52.833Z,1.90
2019-01-22T10:28:53.483Z,1.78
2019-01-22T10:29:54.085Z,1.90
2019-01-22T10:30:54.681Z,2.00
2019-01-22T10:31:55.284Z,2.00
2019-01-22T10:32:55.892Z,2.19
2019-01-22T10:33:56.540Z,2.30
2019-01-22T10:34:57.141Z,2.40
2019-01-22T10:35:57.750Z,2.69
2019-01-22T10:36:58.352Z,2.79
2019-01-22T10:37:58.949Z,2.94
2019-01-22T10:38:59.540Z,3.08
2019-01-22T10:40:00.190Z,3.07
2019-01-22T10:41:00.815Z,3.01
2019-01-22T10:42:01.544Z,3.11
2019-01-22T10:43:08.966Z,3.07
2019-01-22T10:44:02.765Z,3.02
2019-01-22T10:45:03.422Z,3.00
2019-01-22T10:46:04.026Z,3.07
2019-01-22T10:47:04.623Z,3.02
2019-01-22T10:48:05.216Z,3.12
2019-01-22T10:49:05.810Z,3.08
2019-01-22T10:50:06.420Z,3.01
2019-01-22T10:51:07.019Z,2.82
2019-01-22T10:52:07.767Z,2.82
2019-01-22T10:53:08.375Z,2.64
2019-01-22T10:54:08.976Z,2.54
2019-01-22T10:55:09.580Z,2.29
2019-01-22T10:56:10.183Z,2.03
2019-01-22T10:57:10.781Z,1.92
2019-01-22T10:58:11.380Z,1.93
2019-01-22T10:59:11.976Z,2.04
2019-01-22T11:00:12.571Z,1.93
2019-01-22T11:01:13.180Z,2.01
2019-01-22T11:02:13.781Z,1.97
2019-01-22T11:03:14.381Z,2.07
2019-01-22T11:04:14.980Z,2.28
2019-01-22T11:05:15.572Z,2.33
2019-01-22T11:06:16.163Z,2.42
2019-01-22T11:07:16.810Z,2.33
2019-01-22T11:08:17.406Z,2.35
2019-01-22T11:09:18.007Z,2.39
2019-01-22T11:10:18.607Z,2.47
2019-01-22T11:11:19.198Z,2.57
2019-01-22T11:12:19.802Z,2.60
2019-01-22T11:13:20.398Z,2.55
2019-01-22T11:14:20.989Z,2.44
2019-01-22T11:15:27.667Z,2.40
2019-01-22T11:16:22.187Z,2.57
2019-01-22T11:17:22.790Z,2.57
2019-01-22T11:18:23.383Z,2.65
2019-01-22T11:19:27.816Z,2.83
2019-01-22T11:20:24.571Z,3.05
2019-01-22T11:21:25.163Z,2.79
2019-01-22T11:22:25.760Z,2.78
2019-01-22T11:23:26.365Z,2.84
2019-01-22T11:24:30.407Z,2.64
2019-01-22T11:25:27.553Z,2.42
2019-01-22T11:26:28.143Z,2.51
2019-01-22T11:27:28.747Z,2.72
2019-01-22T11:28:29.343Z,2.78
2019-01-22T11:29:29.947Z,2.93
2019-01-22T11:30:30.549Z,3.02
2019-01-22T11:31:31.140Z,3.22
2019-01-22T11:32:31.740Z,3.32
2019-01-22T11:33:33.524Z,3.41
2019-01-22T11:34:32.942Z,3.45
2019-01-22T11:35:33.544Z,3.42
2019-01-22T11:36:34.144Z,3.35
2019-01-22T11:37:34.748Z,3.42
2019-01-22T11:38:35.393Z,3.52
2019-01-22T11:39:35.940Z,3.52
2019-01-22T11:40:36.549Z,3.44
2019-01-22T11:41:37.146Z,3.32
2019-01-22T11:42:37.775Z,3.22
2019-01-22T11:43:38.343Z,3.27
2019-01-22T11:44:38.939Z,3.27
2019-01-22T11:45:39.539Z,3.26
2019-01-22T11:46:40.166Z,3.30
2019-01-22T11:47:40.755Z,3.29
2019-01-22T11:48:41.345Z,3.23
2019-01-22T11:49:41.950Z,3.30
2019-01-22T11:50:42.554Z,3.15
2019-01-22T11:51:43.160Z,3.09
2019-01-22T11:52:43.742Z,3.30
2019-01-22T11:53:44.355Z,3.49
2019-01-22T11:54:44.951Z,3.70
2019-01-22T11:55:50.481Z,3.87
2019-01-22T11:56:46.170Z,4.02
2019-01-22T11:57:46.749Z,4.14
2019-01-22T11:58:47.461Z,4.32
2019-01-22T11:59:48.062Z,4.39
2019-01-22T12:00:48.659Z,4.26
2019-01-22T12:01:49.253Z,4.36
2019-01-22T12:02:49.852Z,4.45
2019-01-22T12:03:50.447Z,4.42
2019-01-22T12:04:51.049Z,4.35
2019-01-22T12:05:53.260Z,4.31
2019-01-22T12:06:52.254Z,4.39
2019-01-22T12:07:52.854Z,4.44
2019-01-22T12:08:53.461Z,4.32
2019-01-22T12:09:54.052Z,4.26
2019-01-22T12:10:54.651Z,4.18
2019-01-22T12:11:55.249Z,4.13
2019-01-22T12:12:55.848Z,4.20
2019-01-22T12:13:56.456Z,3.88
2019-01-22T12:14:57.051Z,3.84
2019-01-22T12:15:57.650Z,3.90
2019-01-22T12:16:58.239Z,4.06
2019-01-22T12:17:58.842Z,4.17
2019-01-22T12:18:59.433Z,4.34
2019-01-22T12:20:01.480Z,4.44
2019-01-22T12:21:00.637Z,4.38
2019-01-22T12:22:01.280Z,4.44
2019-01-22T12:23:01.838Z,4.41
2019-01-22T12:24:02.429Z,4.13
2019-01-22T12:25:03.029Z,4.16
2019-01-22T12:26:03.629Z,4.28
2019-01-22T12:27:04.226Z,4.24
2019-01-22T12:28:04.830Z,4.10
2019-01-22T12:29:05.432Z,3.99
2019-01-22T12:30:06.026Z,3.91
2019-01-22T12:31:06.629Z,3.84
2019-01-22T12:32:07.224Z,3.73
2019-01-22T12:33:07.828Z,3.70
2019-01-22T12:34:08.430Z,3.75
2019-01-22T12:35:09.029Z,3.78
2019-01-22T12:36:09.628Z,3.84
2019-01-22T12:37:10.230Z,3.80
2019-01-22T12:38:10.824Z,3.88
2019-01-22T12:39:11.418Z,3.82
2019-01-22T12:40:12.011Z,3.84
2019-01-22T12:41:12.616Z,3.80
2019-01-22T12:42:13.228Z,3.75
2019-01-22T12:43:13.895Z,3.60
2019-01-22T12:44:14.509Z,3.59
2019-01-22T12:45:15.089Z,3.45
2019-01-22T12:46:15.687Z,3.42
2019-01-22T12:47:16.292Z,3.33
2019-01-22T12:48:16.881Z,3.22
2019-01-22T12:49:17.482Z,3.05
2019-01-22T12:50:18.079Z,2.91
2019-01-22T12:51:18.670Z,2.87
2019-01-22T12:52:19.261Z,2.83
2019-01-22T12:53:19.862Z,2.69
2019-01-22T12:54:20.449Z,2.69
2019-01-22T12:55:21.044Z,2.47
2019-01-22T12:56:21.641Z,2.47
2019-01-22T12:57:22.289Z,2.51
2019-01-22T12:58:22.833Z,2.29
2019-01-22T12:59:23.434Z,2.33
2019-01-22T13:00:24.034Z,2.32
2019-01-22T13:01:24.624Z,2.36
2019-01-22T13:02:25.228Z,2.26
2019-01-22T13:03:25.824Z,2.30
2019-01-22T13:04:26.424Z,2.21
2019-01-22T13:05:27.021Z,2.28
2019-01-22T13:06:27.617Z,2.29
2019-01-22T13:07:28.212Z,2.36
2019-01-22T13:08:28.808Z,2.26